sensor_id;sensor_type;location;lat;lon;timestamp;temperature;humidity
29775;DHT22;16676;51.202;6.774;2023-06-04T00:01:06;22.30;39.00
29775;DHT22;16676;51.202;6.774;2023-06-04T00:05:10;22.30;38.80
29775;DHT22;16676;51.202;6.774;2023-06-04T00:09:11;22.30;39.10
29775;DHT22;16676;51.202;6.774;2023-06-04T00:13:13;22.30;38.50
29775;DHT22;16676;51.202;6.774;2023-06-04T00:17:16;22.30;38.80
29775;DHT22;16676;51.202;6.774;2023-06-04T00:21:19;22.30;38.80
29775;DHT22;16676;51.202;6.774;2023-06-04T00:25:21;22.30;39.90
29775;DHT22;16676;51.202;6.774;2023-06-04T00:29:23;22.30;38.70
29775;DHT22;16676;51.202;6.774;2023-06-04T00:33:25;22.30;38.90
29775;DHT22;16676;51.202;6.774;2023-06-04T00:37:29;22.20;39.20
29775;DHT22;16676;51.202;6.774;2023-06-04T00:41:31;22.20;38.70
29775;DHT22;16676;51.202;6.774;2023-06-04T00:45:32;22.20;38.70
29775;DHT22;16676;51.202;6.774;2023-06-04T00:49:35;22.20;39.20
29775;DHT22;16676;51.202;6.774;2023-06-04T00:53:38;22.30;39.80
29775;DHT22;16676;51.202;6.774;2023-06-04T00:57:40;22.20;39.90
29775;DHT22;16676;51.202;6.774;2023-06-04T01:01:47;22.20;40.40
29775;DHT22;16676;51.202;6.774;2023-06-04T01:05:57;22.20;39.80
29775;DHT22;16676;51.202;6.774;2023-06-04T01:10:08;22.20;40.10
29775;DHT22;16676;51.202;6.774;2023-06-04T01:14:12;22.20;40.20
29775;DHT22;16676;51.202;6.774;2023-06-04T01:18:15;22.20;39.70
29775;DHT22;16676;51.202;6.774;2023-06-04T01:22:34;22.20;39.40
29775;DHT22;16676;51.202;6.774;2023-06-04T01:26:38;22.20;40.60
29775;DHT22;16676;51.202;6.774;2023-06-04T01:30:43;22.20;40.70
29775;DHT22;16676;51.202;6.774;2023-06-04T01:34:46;22.20;40.00
29775;DHT22;16676;51.202;6.774;2023-06-04T01:38:48;22.20;40.30
29775;DHT22;16676;51.202;6.774;2023-06-04T01:42:52;22.20;39.60
29775;DHT22;16676;51.202;6.774;2023-06-04T01:46:54;22.20;40.30
29775;DHT22;16676;51.202;6.774;2023-06-04T01:50:56;22.10;39.50
29775;DHT22;16676;51.202;6.774;2023-06-04T01:54:58;22.10;40.00
29775;DHT22;16676;51.202;6.774;2023-06-04T01:59:01;22.10;40.70
29775;DHT22;16676;51.202;6.774;2023-06-04T02:03:03;22.10;40.00
29775;DHT22;16676;51.202;6.774;2023-06-04T02:07:05;22.10;39.70
29775;DHT22;16676;51.202;6.774;2023-06-04T02:11:07;22.10;39.80
29775;DHT22;16676;51.202;6.774;2023-06-04T02:15:11;22.10;40.20
29775;DHT22;16676;51.202;6.774;2023-06-04T02:19:13;22.10;39.60
29775;DHT22;16676;51.202;6.774;2023-06-04T02:23:16;22.10;40.60
29775;DHT22;16676;51.202;6.774;2023-06-04T02:27:18;22.10;39.60
29775;DHT22;16676;51.202;6.774;2023-06-04T02:31:22;22.10;40.90
29775;DHT22;16676;51.202;6.774;2023-06-04T02:35:24;22.10;40.00
29775;DHT22;16676;51.202;6.774;2023-06-04T02:39:26;22.10;39.90
29775;DHT22;16676;51.202;6.774;2023-06-04T02:43:28;22.10;41.30
29775;DHT22;16676;51.202;6.774;2023-06-04T02:47:31;22.00;40.30
29775;DHT22;16676;51.202;6.774;2023-06-04T02:51:33;22.00;40.90
29775;DHT22;16676;51.202;6.774;2023-06-04T02:55:35;22.00;39.90
29775;DHT22;16676;51.202;6.774;2023-06-04T02:59:36;22.00;41.40
29775;DHT22;16676;51.202;6.774;2023-06-04T03:03:40;22.00;41.00
29775;DHT22;16676;51.202;6.774;2023-06-04T03:07:43;22.00;40.80
29775;DHT22;16676;51.202;6.774;2023-06-04T03:11:45;22.00;41.10
29775;DHT22;16676;51.202;6.774;2023-06-04T03:15:47;22.00;40.40
29775;DHT22;16676;51.202;6.774;2023-06-04T03:19:51;22.00;41.90
29775;DHT22;16676;51.202;6.774;2023-06-04T03:23:52;22.00;40.40
29775;DHT22;16676;51.202;6.774;2023-06-04T03:27:54;22.00;40.80
29775;DHT22;16676;51.202;6.774;2023-06-04T03:31:56;22.00;41.20
29775;DHT22;16676;51.202;6.774;2023-06-04T03:35:59;22.00;41.10
29775;DHT22;16676;51.202;6.774;2023-06-04T03:40:02;21.90;40.20
29775;DHT22;16676;51.202;6.774;2023-06-04T03:44:06;21.90;40.50
29775;DHT22;16676;51.202;6.774;2023-06-04T03:48:08;21.90;41.00
29775;DHT22;16676;51.202;6.774;2023-06-04T03:52:12;21.90;40.40
29775;DHT22;16676;51.202;6.774;2023-06-04T03:56:13;22.00;40.40
29775;DHT22;16676;51.202;6.774;2023-06-04T04:00:16;21.90;41.00
29775;DHT22;16676;51.202;6.774;2023-06-04T04:04:18;22.00;40.50
29775;DHT22;16676;51.202;6.774;2023-06-04T04:08:21;22.00;40.20
29775;DHT22;16676;51.202;6.774;2023-06-04T04:12:23;21.90;41.20
29775;DHT22;16676;51.202;6.774;2023-06-04T04:16:25;21.90;40.30
29775;DHT22;16676;51.202;6.774;2023-06-04T04:20:28;21.90;41.30
29775;DHT22;16676;51.202;6.774;2023-06-04T04:24:31;21.90;40.50
29775;DHT22;16676;51.202;6.774;2023-06-04T04:28:34;21.90;41.00
29775;DHT22;16676;51.202;6.774;2023-06-04T04:32:36;21.90;41.00
29775;DHT22;16676;51.202;6.774;2023-06-04T04:36:39;21.90;42.10
29775;DHT22;16676;51.202;6.774;2023-06-04T04:40:42;21.90;41.30
29775;DHT22;16676;51.202;6.774;2023-06-04T04:44:44;21.90;41.40
29775;DHT22;16676;51.202;6.774;2023-06-04T04:48:48;21.90;41.90
29775;DHT22;16676;51.202;6.774;2023-06-04T04:52:50;21.90;41.00
29775;DHT22;16676;51.202;6.774;2023-06-04T04:56:53;21.90;41.00
29775;DHT22;16676;51.202;6.774;2023-06-04T05:00:55;21.90;40.90
29775;DHT22;16676;51.202;6.774;2023-06-04T05:04:57;21.90;41.30
29775;DHT22;16676;51.202;6.774;2023-06-04T05:08:59;21.90;40.60
29775;DHT22;16676;51.202;6.774;2023-06-04T05:13:02;21.80;41.70
29775;DHT22;16676;51.202;6.774;2023-06-04T05:17:05;21.90;41.70
29775;DHT22;16676;51.202;6.774;2023-06-04T05:21:07;21.80;41.40
29775;DHT22;16676;51.202;6.774;2023-06-04T05:25:09;21.90;41.70
29775;DHT22;16676;51.202;6.774;2023-06-04T05:29:12;21.80;41.10
29775;DHT22;16676;51.202;6.774;2023-06-04T05:33:14;21.80;41.10
29775;DHT22;16676;51.202;6.774;2023-06-04T05:37:19;21.80;41.40
29775;DHT22;16676;51.202;6.774;2023-06-04T05:41:21;21.80;41.60
29775;DHT22;16676;51.202;6.774;2023-06-04T05:45:25;21.80;42.10
29775;DHT22;16676;51.202;6.774;2023-06-04T05:49:27;21.80;40.80
29775;DHT22;16676;51.202;6.774;2023-06-04T05:53:29;21.80;41.10
29775;DHT22;16676;51.202;6.774;2023-06-04T05:57:31;21.70;40.90
29775;DHT22;16676;51.202;6.774;2023-06-04T06:01:34;21.70;40.40
29775;DHT22;16676;51.202;6.774;2023-06-04T06:05:36;21.60;39.00
29775;DHT22;16676;51.202;6.774;2023-06-04T06:09:38;21.50;38.80
29775;DHT22;16676;51.202;6.774;2023-06-04T06:13:40;21.60;38.90
29775;DHT22;16676;51.202;6.774;2023-06-04T06:17:44;21.60;39.10
29775;DHT22;16676;51.202;6.774;2023-06-04T06:21:46;21.50;39.00
29775;DHT22;16676;51.202;6.774;2023-06-04T06:25:48;21.50;38.90
29775;DHT22;16676;51.202;6.774;2023-06-04T06:29:52;21.60;38.40
29775;DHT22;16676;51.202;6.774;2023-06-04T06:33:55;21.50;38.30
29775;DHT22;16676;51.202;6.774;2023-06-04T06:37:57;21.50;38.30
29775;DHT22;16676;51.202;6.774;2023-06-04T06:41:59;21.50;38.00
29775;DHT22;16676;51.202;6.774;2023-06-04T06:46:01;21.50;38.90
29775;DHT22;16676;51.202;6.774;2023-06-04T06:50:05;21.50;38.20
29775;DHT22;16676;51.202;6.774;2023-06-04T06:54:09;21.50;38.00
29775;DHT22;16676;51.202;6.774;2023-06-04T06:58:11;21.50;38.80
29775;DHT22;16676;51.202;6.774;2023-06-04T07:02:13;21.50;38.60
29775;DHT22;16676;51.202;6.774;2023-06-04T07:06:16;21.50;38.10
29775;DHT22;16676;51.202;6.774;2023-06-04T07:10:18;21.50;38.40
29775;DHT22;16676;51.202;6.774;2023-06-04T07:14:20;21.50;38.40
29775;DHT22;16676;51.202;6.774;2023-06-04T07:18:22;21.60;38.60
29775;DHT22;16676;51.202;6.774;2023-06-04T07:22:25;21.60;38.20
29775;DHT22;16676;51.202;6.774;2023-06-04T07:26:27;21.60;38.20
29775;DHT22;16676;51.202;6.774;2023-06-04T07:30:31;21.60;38.30
29775;DHT22;16676;51.202;6.774;2023-06-04T07:34:33;21.70;38.90
29775;DHT22;16676;51.202;6.774;2023-06-04T07:38:36;21.70;39.20
29775;DHT22;16676;51.202;6.774;2023-06-04T07:42:38;21.70;38.20
29775;DHT22;16676;51.202;6.774;2023-06-04T07:46:41;21.70;38.60
29775;DHT22;16676;51.202;6.774;2023-06-04T07:50:43;21.70;38.50
29775;DHT22;16676;51.202;6.774;2023-06-04T07:54:46;21.80;39.40
29775;DHT22;16676;51.202;6.774;2023-06-04T07:58:48;21.80;40.60
29775;DHT22;16676;51.202;6.774;2023-06-04T08:02:50;21.80;40.30
29775;DHT22;16676;51.202;6.774;2023-06-04T08:06:53;21.80;39.10
29775;DHT22;16676;51.202;6.774;2023-06-04T08:10:57;21.80;38.80
29775;DHT22;16676;51.202;6.774;2023-06-04T08:14:59;21.80;38.20
29775;DHT22;16676;51.202;6.774;2023-06-04T08:19:01;21.80;38.40
29775;DHT22;16676;51.202;6.774;2023-06-04T08:23:03;21.80;37.60
29775;DHT22;16676;51.202;6.774;2023-06-04T08:27:06;21.80;37.50
29775;DHT22;16676;51.202;6.774;2023-06-04T08:31:09;21.90;37.60
29775;DHT22;16676;51.202;6.774;2023-06-04T08:35:11;21.90;38.60
29775;DHT22;16676;51.202;6.774;2023-06-04T08:39:13;21.90;37.60
29775;DHT22;16676;51.202;6.774;2023-06-04T08:43:16;21.90;37.10
29775;DHT22;16676;51.202;6.774;2023-06-04T08:47:19;21.90;37.20
29775;DHT22;16676;51.202;6.774;2023-06-04T08:51:21;21.90;37.30
29775;DHT22;16676;51.202;6.774;2023-06-04T08:55:23;22.00;37.00
29775;DHT22;16676;51.202;6.774;2023-06-04T08:59:27;22.00;36.30
29775;DHT22;16676;51.202;6.774;2023-06-04T09:03:29;22.00;36.30
29775;DHT22;16676;51.202;6.774;2023-06-04T09:07:35;22.00;36.50
29775;DHT22;16676;51.202;6.774;2023-06-04T09:11:41;22.00;35.80
29775;DHT22;16676;51.202;6.774;2023-06-04T09:15:58;21.90;35.80
29775;DHT22;16676;51.202;6.774;2023-06-04T09:20:00;22.00;36.60
29775;DHT22;16676;51.202;6.774;2023-06-04T09:24:02;22.10;36.60
29775;DHT22;16676;51.202;6.774;2023-06-04T09:28:06;22.10;36.70
29775;DHT22;16676;51.202;6.774;2023-06-04T09:32:09;22.10;36.30
29775;DHT22;16676;51.202;6.774;2023-06-04T09:36:13;22.00;35.70
29775;DHT22;16676;51.202;6.774;2023-06-04T09:40:15;22.10;35.80
29775;DHT22;16676;51.202;6.774;2023-06-04T09:44:17;22.10;36.00
29775;DHT22;16676;51.202;6.774;2023-06-04T09:48:21;22.20;35.60
29775;DHT22;16676;51.202;6.774;2023-06-04T09:52:32;22.20;35.40
29775;DHT22;16676;51.202;6.774;2023-06-04T09:56:39;22.10;35.50
29775;DHT22;16676;51.202;6.774;2023-06-04T10:00:43;22.20;35.60
29775;DHT22;16676;51.202;6.774;2023-06-04T10:04:49;22.20;36.40
29775;DHT22;16676;51.202;6.774;2023-06-04T10:08:55;22.20;35.80
29775;DHT22;16676;51.202;6.774;2023-06-04T10:13:02;22.20;35.80
29775;DHT22;16676;51.202;6.774;2023-06-04T10:17:07;22.30;35.80
29775;DHT22;16676;51.202;6.774;2023-06-04T10:21:13;22.30;35.40
29775;DHT22;16676;51.202;6.774;2023-06-04T10:25:15;22.20;35.10
29775;DHT22;16676;51.202;6.774;2023-06-04T10:29:18;22.30;35.40
29775;DHT22;16676;51.202;6.774;2023-06-04T10:33:21;22.30;36.20
29775;DHT22;16676;51.202;6.774;2023-06-04T10:37:26;22.30;35.70
29775;DHT22;16676;51.202;6.774;2023-06-04T10:41:30;22.30;35.40
29775;DHT22;16676;51.202;6.774;2023-06-04T10:45:33;22.40;35.80
29775;DHT22;16676;51.202;6.774;2023-06-04T10:49:35;22.40;35.80
29775;DHT22;16676;51.202;6.774;2023-06-04T10:53:38;22.40;36.90
29775;DHT22;16676;51.202;6.774;2023-06-04T10:57:51;22.40;36.70
29775;DHT22;16676;51.202;6.774;2023-06-04T11:02:04;22.50;35.90
29775;DHT22;16676;51.202;6.774;2023-06-04T11:06:16;22.50;35.50
29775;DHT22;16676;51.202;6.774;2023-06-04T11:10:31;22.40;34.70
29775;DHT22;16676;51.202;6.774;2023-06-04T11:14:33;22.50;34.80
29775;DHT22;16676;51.202;6.774;2023-06-04T11:18:35;22.50;34.50
29775;DHT22;16676;51.202;6.774;2023-06-04T11:22:37;22.50;34.40
29775;DHT22;16676;51.202;6.774;2023-06-04T11:26:41;22.60;34.90
29775;DHT22;16676;51.202;6.774;2023-06-04T11:30:43;22.70;35.30
29775;DHT22;16676;51.202;6.774;2023-06-04T11:34:45;22.70;35.20
29775;DHT22;16676;51.202;6.774;2023-06-04T11:38:54;22.70;34.90
29775;DHT22;16676;51.202;6.774;2023-06-04T11:42:57;22.70;35.40
29775;DHT22;16676;51.202;6.774;2023-06-04T11:46:59;22.70;34.70
29775;DHT22;16676;51.202;6.774;2023-06-04T11:51:06;22.70;34.40
29775;DHT22;16676;51.202;6.774;2023-06-04T11:55:10;22.70;34.10
29775;DHT22;16676;51.202;6.774;2023-06-04T11:59:14;22.80;34.10
29775;DHT22;16676;51.202;6.774;2023-06-04T12:03:16;22.90;35.10
29775;DHT22;16676;51.202;6.774;2023-06-04T12:07:20;22.90;35.30
29775;DHT22;16676;51.202;6.774;2023-06-04T12:11:28;22.90;33.90
29775;DHT22;16676;51.202;6.774;2023-06-04T12:15:33;22.80;32.80
29775;DHT22;16676;51.202;6.774;2023-06-04T12:19:46;22.90;33.90
29775;DHT22;16676;51.202;6.774;2023-06-04T12:23:48;22.90;33.60
29775;DHT22;16676;51.202;6.774;2023-06-04T12:27:50;22.90;32.90
29775;DHT22;16676;51.202;6.774;2023-06-04T12:32:01;22.90;33.60
29775;DHT22;16676;51.202;6.774;2023-06-04T12:36:04;23.00;31.90
29775;DHT22;16676;51.202;6.774;2023-06-04T12:40:07;22.90;30.90
29775;DHT22;16676;51.202;6.774;2023-06-04T12:44:09;23.00;31.50
29775;DHT22;16676;51.202;6.774;2023-06-04T12:48:12;23.00;30.10
29775;DHT22;16676;51.202;6.774;2023-06-04T12:52:16;23.10;31.00
29775;DHT22;16676;51.202;6.774;2023-06-04T12:56:17;23.10;32.00
29775;DHT22;16676;51.202;6.774;2023-06-04T13:00:19;23.10;31.80
29775;DHT22;16676;51.202;6.774;2023-06-04T13:04:23;23.00;30.70
29775;DHT22;16676;51.202;6.774;2023-06-04T13:08:25;23.10;30.70
29775;DHT22;16676;51.202;6.774;2023-06-04T13:12:27;23.10;30.90
29775;DHT22;16676;51.202;6.774;2023-06-04T13:16:29;23.20;31.40
29775;DHT22;16676;51.202;6.774;2023-06-04T13:20:32;23.20;31.50
29775;DHT22;16676;51.202;6.774;2023-06-04T13:24:34;23.10;30.80
29775;DHT22;16676;51.202;6.774;2023-06-04T13:28:36;23.10;31.30
29775;DHT22;16676;51.202;6.774;2023-06-04T13:32:39;23.10;30.00
29775;DHT22;16676;51.202;6.774;2023-06-04T13:36:42;23.20;30.80
29775;DHT22;16676;51.202;6.774;2023-06-04T13:40:44;23.30;30.40
29775;DHT22;16676;51.202;6.774;2023-06-04T13:44:46;23.30;31.20
29775;DHT22;16676;51.202;6.774;2023-06-04T13:48:47;23.20;31.40
29775;DHT22;16676;51.202;6.774;2023-06-04T13:52:51;23.30;31.70
29775;DHT22;16676;51.202;6.774;2023-06-04T13:56:53;23.30;31.70
29775;DHT22;16676;51.202;6.774;2023-06-04T14:00:55;23.30;31.80
29775;DHT22;16676;51.202;6.774;2023-06-04T14:04:57;23.40;32.00
29775;DHT22;16676;51.202;6.774;2023-06-04T14:09:00;23.40;32.30
29775;DHT22;16676;51.202;6.774;2023-06-04T14:13:02;23.40;31.30
29775;DHT22;16676;51.202;6.774;2023-06-04T14:17:05;23.40;31.40
29775;DHT22;16676;51.202;6.774;2023-06-04T14:21:07;23.40;32.30
29775;DHT22;16676;51.202;6.774;2023-06-04T14:25:11;23.40;32.60
29775;DHT22;16676;51.202;6.774;2023-06-04T14:29:13;23.40;32.10
29775;DHT22;16676;51.202;6.774;2023-06-04T14:33:15;23.40;32.70
29775;DHT22;16676;51.202;6.774;2023-06-04T14:37:17;23.40;31.90
29775;DHT22;16676;51.202;6.774;2023-06-04T14:41:21;23.40;31.80
29775;DHT22;16676;51.202;6.774;2023-06-04T14:45:23;23.40;31.50
29775;DHT22;16676;51.202;6.774;2023-06-04T14:49:25;23.40;31.40
29775;DHT22;16676;51.202;6.774;2023-06-04T14:53:27;23.40;31.60
29775;DHT22;16676;51.202;6.774;2023-06-04T14:57:30;23.50;31.70
29775;DHT22;16676;51.202;6.774;2023-06-04T15:01:32;23.40;31.20
29775;DHT22;16676;51.202;6.774;2023-06-04T15:05:34;23.50;32.80
29775;DHT22;16676;51.202;6.774;2023-06-04T15:09:36;23.50;32.00
29775;DHT22;16676;51.202;6.774;2023-06-04T15:13:39;23.50;31.90
29775;DHT22;16676;51.202;6.774;2023-06-04T15:17:41;23.50;32.00
29775;DHT22;16676;51.202;6.774;2023-06-04T15:21:43;23.50;32.00
29775;DHT22;16676;51.202;6.774;2023-06-04T15:25:45;23.50;32.00
29775;DHT22;16676;51.202;6.774;2023-06-04T15:29:48;23.50;31.70
29775;DHT22;16676;51.202;6.774;2023-06-04T15:33:50;23.50;31.40
29775;DHT22;16676;51.202;6.774;2023-06-04T15:37:52;23.50;31.40
29775;DHT22;16676;51.202;6.774;2023-06-04T15:41:54;23.50;32.50
29775;DHT22;16676;51.202;6.774;2023-06-04T15:45:57;23.70;32.50
29775;DHT22;16676;51.202;6.774;2023-06-04T15:49:59;23.70;32.60
29775;DHT22;16676;51.202;6.774;2023-06-04T15:54:01;23.60;32.30
29775;DHT22;16676;51.202;6.774;2023-06-04T15:58:03;23.50;34.20
29775;DHT22;16676;51.202;6.774;2023-06-04T16:02:07;23.60;33.10
29775;DHT22;16676;51.202;6.774;2023-06-04T16:06:10;23.70;32.70
29775;DHT22;16676;51.202;6.774;2023-06-04T16:10:11;23.70;31.90
29775;DHT22;16676;51.202;6.774;2023-06-04T16:14:13;23.80;32.30
29775;DHT22;16676;51.202;6.774;2023-06-04T16:18:17;23.80;32.60
29775;DHT22;16676;51.202;6.774;2023-06-04T16:22:19;23.80;32.60
29775;DHT22;16676;51.202;6.774;2023-06-04T16:26:23;23.80;31.60
29775;DHT22;16676;51.202;6.774;2023-06-04T16:30:26;23.80;32.00
29775;DHT22;16676;51.202;6.774;2023-06-04T16:34:29;23.70;31.20
29775;DHT22;16676;51.202;6.774;2023-06-04T16:38:31;23.80;32.10
29775;DHT22;16676;51.202;6.774;2023-06-04T16:42:33;23.70;31.50
29775;DHT22;16676;51.202;6.774;2023-06-04T16:46:36;23.80;32.00
29775;DHT22;16676;51.202;6.774;2023-06-04T16:50:39;23.80;32.00
29775;DHT22;16676;51.202;6.774;2023-06-04T16:54:41;23.80;32.20
29775;DHT22;16676;51.202;6.774;2023-06-04T16:58:43;23.70;31.40
29775;DHT22;16676;51.202;6.774;2023-06-04T17:02:45;23.80;30.90
29775;DHT22;16676;51.202;6.774;2023-06-04T17:06:48;23.80;31.40
29775;DHT22;16676;51.202;6.774;2023-06-04T17:10:50;23.80;31.30
29775;DHT22;16676;51.202;6.774;2023-06-04T17:14:52;23.90;32.70
29775;DHT22;16676;51.202;6.774;2023-06-04T17:18:54;23.80;32.80
29775;DHT22;16676;51.202;6.774;2023-06-04T17:22:59;23.80;32.20
29775;DHT22;16676;51.202;6.774;2023-06-04T17:27:01;23.90;32.70
29775;DHT22;16676;51.202;6.774;2023-06-04T17:31:03;23.90;33.20
29775;DHT22;16676;51.202;6.774;2023-06-04T17:35:06;23.90;33.30
29775;DHT22;16676;51.202;6.774;2023-06-04T17:39:11;23.90;34.00
29775;DHT22;16676;51.202;6.774;2023-06-04T17:43:13;23.90;33.90
29775;DHT22;16676;51.202;6.774;2023-06-04T17:47:15;24.00;34.30
29775;DHT22;16676;51.202;6.774;2023-06-04T17:51:18;23.90;34.60
29775;DHT22;16676;51.202;6.774;2023-06-04T17:55:21;23.90;34.10
29775;DHT22;16676;51.202;6.774;2023-06-04T17:59:23;24.00;34.60
29775;DHT22;16676;51.202;6.774;2023-06-04T18:03:25;24.00;34.40
29775;DHT22;16676;51.202;6.774;2023-06-04T18:07:27;24.00;34.40
29775;DHT22;16676;51.202;6.774;2023-06-04T18:11:30;23.90;34.50
29775;DHT22;16676;51.202;6.774;2023-06-04T18:15:32;23.90;34.70
29775;DHT22;16676;51.202;6.774;2023-06-04T18:19:34;24.00;35.30
29775;DHT22;16676;51.202;6.774;2023-06-04T18:23:36;24.00;34.20
29775;DHT22;16676;51.202;6.774;2023-06-04T18:27:40;23.90;34.50
29775;DHT22;16676;51.202;6.774;2023-06-04T18:31:42;24.00;34.70
29775;DHT22;16676;51.202;6.774;2023-06-04T18:35:44;24.00;34.90
29775;DHT22;16676;51.202;6.774;2023-06-04T18:39:46;23.90;35.10
29775;DHT22;16676;51.202;6.774;2023-06-04T18:43:49;23.90;37.10
29775;DHT22;16676;51.202;6.774;2023-06-04T18:47:51;23.90;37.70
29775;DHT22;16676;51.202;6.774;2023-06-04T18:51:53;23.90;38.40
29775;DHT22;16676;51.202;6.774;2023-06-04T18:55:55;23.90;40.30
29775;DHT22;16676;51.202;6.774;2023-06-04T18:59:59;23.90;38.70
29775;DHT22;16676;51.202;6.774;2023-06-04T19:04:01;23.90;39.30
29775;DHT22;16676;51.202;6.774;2023-06-04T19:08:03;23.70;38.60
29775;DHT22;16676;51.202;6.774;2023-06-04T19:12:05;23.80;38.80
29775;DHT22;16676;51.202;6.774;2023-06-04T19:16:10;23.80;38.80
29775;DHT22;16676;51.202;6.774;2023-06-04T19:20:14;23.70;38.80
29775;DHT22;16676;51.202;6.774;2023-06-04T19:24:18;23.80;38.40
29775;DHT22;16676;51.202;6.774;2023-06-04T19:28:21;23.70;38.20
29775;DHT22;16676;51.202;6.774;2023-06-04T19:32:24;23.60;38.50
29775;DHT22;16676;51.202;6.774;2023-06-04T19:36:28;23.60;38.40
29775;DHT22;16676;51.202;6.774;2023-06-04T19:40:30;23.50;38.00
29775;DHT22;16676;51.202;6.774;2023-06-04T19:44:32;23.50;38.40
29775;DHT22;16676;51.202;6.774;2023-06-04T19:48:35;23.60;38.40
29775;DHT22;16676;51.202;6.774;2023-06-04T19:52:38;23.50;38.50
29775;DHT22;16676;51.202;6.774;2023-06-04T19:56:40;23.50;38.50
29775;DHT22;16676;51.202;6.774;2023-06-04T20:00:43;23.40;38.10
29775;DHT22;16676;51.202;6.774;2023-06-04T20:04:47;23.40;39.10
29775;DHT22;16676;51.202;6.774;2023-06-04T20:08:52;23.40;38.50
29775;DHT22;16676;51.202;6.774;2023-06-04T20:12:54;23.40;38.10
29775;DHT22;16676;51.202;6.774;2023-06-04T20:16:56;23.40;38.40
29775;DHT22;16676;51.202;6.774;2023-06-04T20:20:59;23.40;38.40
29775;DHT22;16676;51.202;6.774;2023-06-04T20:25:01;23.30;37.90
29775;DHT22;16676;51.202;6.774;2023-06-04T20:29:03;23.30;38.30
29775;DHT22;16676;51.202;6.774;2023-06-04T20:33:05;23.40;38.70
29775;DHT22;16676;51.202;6.774;2023-06-04T20:37:09;23.30;38.10
29775;DHT22;16676;51.202;6.774;2023-06-04T20:41:11;23.40;38.30
29775;DHT22;16676;51.202;6.774;2023-06-04T20:45:13;23.30;39.00
29775;DHT22;16676;51.202;6.774;2023-06-04T20:49:15;23.30;38.70
29775;DHT22;16676;51.202;6.774;2023-06-04T20:53:18;23.30;38.90
29775;DHT22;16676;51.202;6.774;2023-06-04T20:57:20;23.30;38.80
29775;DHT22;16676;51.202;6.774;2023-06-04T21:01:22;23.30;38.80
29775;DHT22;16676;51.202;6.774;2023-06-04T21:05:24;23.20;38.70
29775;DHT22;16676;51.202;6.774;2023-06-04T21:09:27;23.20;38.40
29775;DHT22;16676;51.202;6.774;2023-06-04T21:13:29;23.20;38.80
29775;DHT22;16676;51.202;6.774;2023-06-04T21:17:31;23.20;38.30
29775;DHT22;16676;51.202;6.774;2023-06-04T21:21:33;23.10;38.30
29775;DHT22;16676;51.202;6.774;2023-06-04T21:25:36;23.10;38.30
29775;DHT22;16676;51.202;6.774;2023-06-04T21:29:38;23.10;38.40
29775;DHT22;16676;51.202;6.774;2023-06-04T21:33:41;23.10;38.40
29775;DHT22;16676;51.202;6.774;2023-06-04T21:37:43;23.10;38.20
29775;DHT22;16676;51.202;6.774;2023-06-04T21:41:46;23.10;38.30
29775;DHT22;16676;51.202;6.774;2023-06-04T21:45:48;23.10;38.60
29775;DHT22;16676;51.202;6.774;2023-06-04T21:49:50;23.00;38.40
29775;DHT22;16676;51.202;6.774;2023-06-04T21:53:52;23.10;38.20
29775;DHT22;16676;51.202;6.774;2023-06-04T21:57:55;23.10;38.20
29775;DHT22;16676;51.202;6.774;2023-06-04T22:01:57;23.00;38.10
29775;DHT22;16676;51.202;6.774;2023-06-04T22:05:59;23.00;38.10
29775;DHT22;16676;51.202;6.774;2023-06-04T22:10:01;23.00;37.90
29775;DHT22;16676;51.202;6.774;2023-06-04T22:14:04;22.90;38.20
29775;DHT22;16676;51.202;6.774;2023-06-04T22:18:06;22.90;38.00
29775;DHT22;16676;51.202;6.774;2023-06-04T22:22:08;23.00;38.00
29775;DHT22;16676;51.202;6.774;2023-06-04T22:26:10;22.90;38.10
29775;DHT22;16676;51.202;6.774;2023-06-04T22:30:13;22.90;38.20
29775;DHT22;16676;51.202;6.774;2023-06-04T22:34:15;22.90;38.10
29775;DHT22;16676;51.202;6.774;2023-06-04T22:38:17;22.90;38.00
29775;DHT22;16676;51.202;6.774;2023-06-04T22:42:19;22.80;37.90
29775;DHT22;16676;51.202;6.774;2023-06-04T22:46:22;22.70;38.20
29775;DHT22;16676;51.202;6.774;2023-06-04T22:50:24;22.70;38.50
29775;DHT22;16676;51.202;6.774;2023-06-04T22:54:27;22.60;38.20
29775;DHT22;16676;51.202;6.774;2023-06-04T22:58:29;22.60;38.40
29775;DHT22;16676;51.202;6.774;2023-06-04T23:02:32;22.60;38.40
29775;DHT22;16676;51.202;6.774;2023-06-04T23:06:34;22.50;38.30
29775;DHT22;16676;51.202;6.774;2023-06-04T23:10:37;22.50;38.50
29775;DHT22;16676;51.202;6.774;2023-06-04T23:14:39;22.40;38.80
29775;DHT22;16676;51.202;6.774;2023-06-04T23:18:42;22.40;39.20
29775;DHT22;16676;51.202;6.774;2023-06-04T23:22:44;22.30;39.60
29775;DHT22;16676;51.202;6.774;2023-06-04T23:26:46;22.30;39.70
29775;DHT22;16676;51.202;6.774;2023-06-04T23:30:47;22.30;40.10
29775;DHT22;16676;51.202;6.774;2023-06-04T23:34:51;22.30;40.50
29775;DHT22;16676;51.202;6.774;2023-06-04T23:38:52;22.30;40.80
29775;DHT22;16676;51.202;6.774;2023-06-04T23:42:54;22.30;41.20
29775;DHT22;16676;51.202;6.774;2023-06-04T23:46:56;22.30;41.60
29775;DHT22;16676;51.202;6.774;2023-06-04T23:51:00;22.20;42.00
29775;DHT22;16676;51.202;6.774;2023-06-04T23:55:01;22.20;42.30
29775;DHT22;16676;51.202;6.774;2023-06-04T23:59:03;22.30;42.50
